Time;durP1;ratioP1;P1;durP2;ratioP2;P2;SDS_P1;SDS_P2;PMS_P1;PMS_P2;Temp;Humidity;BMP_temperature;BMP_pressure;BME280_temperature;BME280_humidity;BME280_pressure;Samples;Min_cycle;Max_cycle;Signal;HPM_P1;HPM_P2
2021/06/18 00:00:50;;;;;;;9.98;6.32;;;20.80;39.50;;;;;;4918679;29;20188;-87
2021/06/18 00:03:16;;;;;;;9.80;6.57;;;20.70;39.60;;;;;;4919068;29;20076;-87
2021/06/18 00:05:42;;;;;;;10.45;6.93;;;20.70;39.90;;;;;;4918518;29;20024;-87
2021/06/18 00:08:07;;;;;;;11.02;6.72;;;20.70;40.00;;;;;;4918776;29;20028;-88
2021/06/18 00:10:33;;;;;;;10.18;6.32;;;20.60;40.00;;;;;;4909235;29;20024;-86
2021/06/18 00:13:00;;;;;;;12.20;6.88;;;20.60;40.30;;;;;;4917898;29;20059;-86
2021/06/18 00:15:26;;;;;;;11.07;7.07;;;20.60;40.50;;;;;;4918773;29;20036;-86
2021/06/18 00:17:52;;;;;;;10.55;7.28;;;20.50;40.50;;;;;;4918973;29;20046;-86
2021/06/18 00:20:18;;;;;;;9.60;6.45;;;20.50;40.70;;;;;;4918704;29;20477;-86
2021/06/18 00:22:44;;;;;;;10.77;7.47;;;20.40;40.80;;;;;;4918698;29;20123;-86
2021/06/18 00:25:11;;;;;;;10.55;7.10;;;20.40;40.80;;;;;;4918577;29;20118;-86
2021/06/18 00:27:37;;;;;;;11.02;7.45;;;20.30;41.10;;;;;;4918616;29;20473;-86
2021/06/18 00:30:07;;;;;;;10.65;6.90;;;20.30;41.20;;;;;;4901831;29;20039;-87
2021/06/18 00:32:33;;;;;;;11.95;7.47;;;20.20;41.90;;;;;;4918694;29;20032;-87
2021/06/18 00:34:59;;;;;;;11.00;7.13;;;20.20;41.40;;;;;;4918914;29;20544;-86
2021/06/18 00:37:25;;;;;;;10.50;7.13;;;20.10;41.60;;;;;;4917282;29;20130;-86
2021/06/18 00:39:50;;;;;;;11.98;7.63;;;20.00;41.70;;;;;;4918469;29;20029;-86
2021/06/18 00:42:16;;;;;;;10.75;7.25;;;20.00;42.00;;;;;;4918141;29;20048;-86
2021/06/18 00:44:41;;;;;;;10.93;7.20;;;20.00;42.10;;;;;;4918488;29;20520;-86
2021/06/18 00:47:15;;;;;;;11.07;7.60;;;20.00;42.20;;;;;;4918340;29;20536;-86
2021/06/18 00:49:42;;;;;;;12.00;7.63;;;20.00;42.40;;;;;;4917906;29;20068;-86
2021/06/18 00:52:07;;;;;;;11.82;7.93;;;19.90;42.30;;;;;;4901563;29;20388;-86
2021/06/18 00:54:35;;;;;;;13.55;7.65;;;19.90;42.60;;;;;;4917490;29;20031;-86
2021/06/18 00:57:01;;;;;;;12.35;7.75;;;19.90;42.60;;;;;;4918320;29;20354;-88
2021/06/18 00:59:28;;;;;;;11.95;8.20;;;19.80;42.70;;;;;;4918194;29;20036;-88
2021/06/18 01:01:54;;;;;;;11.32;8.32;;;19.80;43.00;;;;;;4918069;29;20119;-88
2021/06/18 01:04:23;;;;;;;12.73;8.15;;;19.80;43.20;;;;;;4900973;29;20028;-88
2021/06/18 01:06:58;;;;;;;11.20;7.60;;;19.60;43.10;;;;;;4917993;29;20111;-88
2021/06/18 01:09:27;;;;;;;11.98;8.18;;;19.70;43.30;;;;;;4919642;29;20500;-88
2021/06/18 01:12:02;;;;;;;12.43;8.07;;;19.60;43.30;;;;;;4901998;29;20536;-88
2021/06/18 01:14:55;;;;;;;11.38;7.68;;;19.60;43.60;;;;;;4918771;29;20049;-88
2021/06/18 01:17:41;;;;;;;13.48;8.38;;;19.60;43.70;;;;;;4917730;29;20016;-86
2021/06/18 01:20:25;;;;;;;11.68;7.93;;;19.50;43.80;;;;;;4918159;29;20032;-86
2021/06/18 01:22:53;;;;;;;14.30;9.02;;;19.50;43.80;;;;;;4917789;29;20111;-86
2021/06/18 01:25:36;;;;;;;12.45;7.70;;;19.50;44.10;;;;;;4917366;29;20030;-86
2021/06/18 01:28:10;;;;;;;12.88;8.48;;;19.40;44.30;;;;;;4917309;29;20078;-86
2021/06/18 01:30:36;;;;;;;11.82;7.63;;;19.30;44.20;;;;;;4922718;29;20051;-86
2021/06/18 01:33:11;;;;;;;11.18;8.02;;;19.30;44.20;;;;;;4923928;29;20052;-86
2021/06/18 01:35:49;;;;;;;13.68;8.40;;;19.20;44.60;;;;;;4917457;29;20020;-86
2021/06/18 01:38:17;;;;;;;13.75;8.57;;;19.20;44.60;;;;;;4917487;29;20028;-86
2021/06/18 01:40:44;;;;;;;13.68;8.60;;;19.20;44.80;;;;;;4917234;29;20497;-86
2021/06/18 01:43:13;;;;;;;12.60;8.25;;;19.10;44.90;;;;;;4917226;29;20040;-86
2021/06/18 01:45:41;;;;;;;12.10;8.27;;;19.10;45.20;;;;;;4928975;29;20020;-86
2021/06/18 01:48:08;;;;;;;13.80;9.32;;;19.10;45.20;;;;;;4917522;29;20039;-86
2021/06/18 01:50:35;;;;;;;12.10;8.68;;;19.00;45.30;;;;;;4917147;29;20123;-86
2021/06/18 01:53:08;;;;;;;11.98;8.40;;;19.00;45.50;;;;;;4896711;29;20032;-86
2021/06/18 01:55:34;;;;;;;12.25;8.70;;;19.00;45.70;;;;;;4914302;29;20484;-86
2021/06/18 01:58:03;;;;;;;13.23;8.68;;;18.90;45.60;;;;;;4900034;29;20405;-86
2021/06/18 02:00:32;;;;;;;11.70;8.18;;;18.90;45.90;;;;;;4916466;29;20024;-86
2021/06/18 02:03:01;;;;;;;13.00;8.90;;;18.80;46.00;;;;;;4919655;29;20028;-88
2021/06/18 02:05:30;;;;;;;12.95;8.45;;;18.80;46.10;;;;;;4917043;29;20020;-87
2021/06/18 02:07:57;;;;;;;12.38;8.98;;;18.80;46.20;;;;;;4915892;29;20473;-86
2021/06/18 02:10:24;;;;;;;13.30;9.52;;;18.70;46.20;;;;;;4916624;29;20032;-86
2021/06/18 02:12:50;;;;;;;14.20;8.70;;;18.60;46.30;;;;;;4916448;29;20035;-86
2021/06/18 02:15:17;;;;;;;12.98;9.25;;;18.60;46.30;;;;;;4915807;29;20507;-86
2021/06/18 02:17:45;;;;;;;12.80;8.57;;;18.70;46.60;;;;;;4916396;29;20046;-86
2021/06/18 02:20:12;;;;;;;12.77;9.15;;;18.60;46.80;;;;;;4916013;29;20031;-86
2021/06/18 02:22:39;;;;;;;13.63;8.75;;;18.50;46.70;;;;;;4916644;29;20032;-87
2021/06/18 02:25:07;;;;;;;12.90;9.07;;;18.50;46.80;;;;;;4916577;29;20021;-87
2021/06/18 02:27:33;;;;;;;13.00;8.77;;;18.40;47.00;;;;;;4916785;29;20055;-87
2021/06/18 02:29:59;;;;;;;13.75;8.75;;;18.40;47.20;;;;;;4917792;29;20020;-88
2021/06/18 02:32:29;;;;;;;12.70;9.13;;;18.40;47.20;;;;;;4920546;29;20028;-88
2021/06/18 02:34:56;;;;;;;13.63;9.93;;;18.40;47.50;;;;;;4916748;29;20372;-88
2021/06/18 02:37:22;;;;;;;13.30;9.25;;;18.30;47.60;;;;;;4899050;29;20389;-88
2021/06/18 02:39:48;;;;;;;12.35;9.05;;;18.30;47.60;;;;;;4916535;29;20057;-88
2021/06/18 02:42:14;;;;;;;12.95;9.32;;;18.30;47.60;;;;;;4899015;29;20028;-88
2021/06/18 02:44:39;;;;;;;13.73;9.57;;;18.20;47.70;;;;;;4916276;29;20115;-88
2021/06/18 02:47:32;;;;;;;12.82;9.45;;;18.20;47.70;;;;;;4899112;29;20430;-88
2021/06/18 02:50:10;;;;;;;14.25;8.85;;;18.10;47.70;;;;;;4892515;29;20052;-87
2021/06/18 02:52:46;;;;;;;13.48;9.27;;;18.10;48.00;;;;;;4895831;29;20389;-88
2021/06/18 02:55:22;;;;;;;13.23;9.02;;;18.10;48.20;;;;;;4896998;29;20024;-87
2021/06/18 02:57:58;;;;;;;14.30;9.55;;;18.00;48.20;;;;;;4897328;29;20032;-85
2021/06/18 03:00:26;;;;;;;13.48;9.27;;;18.00;48.40;;;;;;4896338;29;20045;-85
2021/06/18 03:02:56;;;;;;;13.98;9.43;;;18.00;48.40;;;;;;4897061;29;20473;-87
2021/06/18 03:05:23;;;;;;;13.70;9.45;;;18.00;48.60;;;;;;4897414;29;20056;-87
2021/06/18 03:08:01;;;;;;;14.70;9.25;;;18.00;48.50;;;;;;4896765;29;20107;-87
2021/06/18 03:10:32;;;;;;;14.32;9.80;;;18.00;48.80;;;;;;4897061;29;20439;-87
2021/06/18 03:13:02;;;;;;;12.23;9.10;;;18.00;48.90;;;;;;4874884;29;20073;-86
2021/06/18 03:15:33;;;;;;;16.92;9.98;;;18.00;49.00;;;;;;4897332;29;20039;-86
2021/06/18 03:18:00;;;;;;;17.60;9.63;;;17.90;49.10;;;;;;4881499;29;20071;-86
2021/06/18 03:20:26;;;;;;;13.63;9.63;;;17.90;49.10;;;;;;4883849;29;20388;-86
2021/06/18 03:23:00;;;;;;;14.18;9.73;;;17.90;49.10;;;;;;4883794;29;20064;-87
2021/06/18 03:25:28;;;;;;;13.73;9.27;;;17.90;49.20;;;;;;4900935;29;20013;-86
2021/06/18 03:27:56;;;;;;;13.93;9.63;;;17.90;49.20;;;;;;4883579;29;20075;-86
2021/06/18 03:30:22;;;;;;;13.07;9.35;;;17.90;49.40;;;;;;4900558;29;20099;-86
2021/06/18 03:32:49;;;;;;;15.20;9.63;;;17.80;49.40;;;;;;4883739;29;20024;-87
2021/06/18 03:35:15;;;;;;;15.38;10.18;;;17.80;49.60;;;;;;4900317;29;20027;-87
2021/06/18 03:37:42;;;;;;;15.80;10.45;;;17.80;49.70;;;;;;4900577;29;20418;-87
2021/06/18 03:40:09;;;;;;;17.38;11.02;;;17.80;49.90;;;;;;4900404;29;20029;-86
2021/06/18 03:42:36;;;;;;;15.43;10.18;;;17.80;50.00;;;;;;4901568;29;20541;-88
2021/06/18 03:45:04;;;;;;;15.25;10.70;;;17.80;50.20;;;;;;4901084;29;20076;-87
2021/06/18 03:47:32;;;;;;;14.90;9.25;;;17.80;50.30;;;;;;4900464;29;20053;-87
2021/06/18 03:50:00;;;;;;;15.02;10.50;;;17.80;50.30;;;;;;4899019;29;20060;-86
2021/06/18 03:52:26;;;;;;;15.43;10.98;;;17.80;50.40;;;;;;4902496;29;20020;-85
2021/06/18 03:54:51;;;;;;;16.67;11.05;;;17.90;50.50;;;;;;4902793;29;20585;-86
2021/06/18 03:57:19;;;;;;;15.70;10.50;;;17.90;50.50;;;;;;4918706;29;20473;-86
2021/06/18 03:59:45;;;;;;;16.88;11.23;;;17.90;50.70;;;;;;4919304;29;20089;-86
2021/06/18 04:02:34;;;;;;;17.23;11.00;;;17.90;50.80;;;;;;4917583;29;20103;-85
2021/06/18 04:05:03;;;;;;;15.13;10.57;;;17.90;50.80;;;;;;4918441;29;20388;-85
2021/06/18 04:07:30;;;;;;;17.98;11.32;;;17.90;50.90;;;;;;4918942;29;20024;-87
2021/06/18 04:09:57;;;;;;;17.20;10.90;;;17.90;51.10;;;;;;4919087;29;20017;-88
2021/06/18 04:12:24;;;;;;;17.13;11.20;;;17.90;51.30;;;;;;4916907;29;20032;-89
2021/06/18 04:14:50;;;;;;;17.23;11.48;;;18.00;51.40;;;;;;4919089;29;20116;-89
2021/06/18 04:17:43;;;;;;;15.88;11.25;;;18.00;51.50;;;;;;4918468;29;20060;-88
2021/06/18 04:20:11;;;;;;;15.45;11.15;;;18.00;51.60;;;;;;4918236;29;20027;-88
2021/06/18 04:22:37;;;;;;;14.90;11.50;;;18.00;51.60;;;;;;4901813;29;20067;-88
2021/06/18 04:25:07;;;;;;;16.88;11.10;;;18.10;51.80;;;;;;4919422;29;20052;-92
2021/06/18 04:27:33;;;;;;;15.27;12.05;;;18.10;51.90;;;;;;4919868;29;20544;-92
2021/06/18 04:29:59;;;;;;;16.10;11.77;;;18.20;52.00;;;;;;4924742;29;20476;-92
2021/06/18 04:32:25;;;;;;;16.42;11.85;;;18.10;52.00;;;;;;4902568;29;20085;-91
2021/06/18 04:34:51;;;;;;;16.02;11.77;;;18.20;52.10;;;;;;4903637;29;20028;-90
2021/06/18 04:37:16;;;;;;;15.90;12.15;;;18.20;52.30;;;;;;4921193;29;20051;-90
2021/06/18 04:39:43;;;;;;;17.20;11.63;;;18.30;52.50;;;;;;4901805;29;20059;-90
2021/06/18 04:42:09;;;;;;;16.45;11.50;;;18.30;52.60;;;;;;4917642;29;20488;-90
2021/06/18 04:44:35;;;;;;;15.18;11.52;;;18.30;52.60;;;;;;4901361;29;20115;-90
2021/06/18 04:47:00;;;;;;;16.00;12.00;;;18.40;52.70;;;;;;4902185;29;20036;-91
2021/06/18 04:49:26;;;;;;;15.40;12.20;;;18.50;52.90;;;;;;4907671;29;20048;-92
2021/06/18 04:51:52;;;;;;;14.63;11.18;;;18.50;52.90;;;;;;4899001;29;20482;-92
2021/06/18 04:54:18;;;;;;;15.18;11.43;;;18.50;53.00;;;;;;4898699;29;20025;-92
2021/06/18 04:56:43;;;;;;;16.35;12.55;;;18.70;53.30;;;;;;4882783;29;20040;-92
2021/06/18 04:59:09;;;;;;;18.83;15.23;;;18.70;53.30;;;;;;4888500;29;20029;-89
2021/06/18 05:01:34;;;;;;;19.95;16.17;;;18.80;53.40;;;;;;4898924;29;20036;-88
2021/06/18 05:04:00;;;;;;;18.25;14.98;;;18.90;53.50;;;;;;4902530;29;20036;-88
2021/06/18 05:06:26;;;;;;;19.15;14.43;;;19.00;53.50;;;;;;4898658;29;20541;-88
2021/06/18 05:08:52;;;;;;;18.70;14.40;;;19.20;54.30;;;;;;4898720;29;20025;-87
2021/06/18 05:11:22;;;;;;;17.35;13.32;;;19.20;53.70;;;;;;4882308;29;20084;-88
2021/06/18 05:13:49;;;;;;;17.27;13.30;;;19.30;53.70;;;;;;4900724;29;20032;-88
2021/06/18 05:16:15;;;;;;;19.85;11.70;;;19.40;53.80;;;;;;4903189;29;20033;-86
2021/06/18 05:18:40;;;;;;;16.60;11.75;;;19.50;53.90;;;;;;4906353;29;20080;-89
2021/06/18 05:21:06;;;;;;;15.32;11.85;;;19.60;54.00;;;;;;4886741;29;20502;-89
2021/06/18 05:23:31;;;;;;;15.40;11.52;;;19.70;54.00;;;;;;4906630;29;20047;-89
2021/06/18 05:25:57;;;;;;;15.85;12.02;;;19.70;53.90;;;;;;4887814;29;20076;-88
2021/06/18 05:28:23;;;;;;;14.35;11.60;;;19.80;54.00;;;;;;4885779;29;20079;-86
2021/06/18 05:30:49;;;;;;;15.15;11.18;;;19.90;54.10;;;;;;4907803;29;20035;-86
2021/06/18 05:33:14;;;;;;;14.98;11.30;;;20.00;54.20;;;;;;4884793;29;20033;-86
2021/06/18 05:35:42;;;;;;;13.75;10.30;;;20.10;54.20;;;;;;4888289;29;20040;-86
2021/06/18 05:38:08;;;;;;;13.77;10.57;;;20.20;54.20;;;;;;4901372;29;20028;-83
2021/06/18 05:40:34;;;;;;;17.00;10.55;;;20.30;54.30;;;;;;4897723;29;20621;-85
2021/06/18 05:42:59;;;;;;;14.20;10.27;;;20.40;54.30;;;;;;4898464;29;20025;-84
2021/06/18 05:45:25;;;;;;;15.50;9.90;;;20.60;54.40;;;;;;4881748;29;20147;-84
2021/06/18 05:47:51;;;;;;;14.88;11.20;;;20.60;54.40;;;;;;4888105;29;20028;-83
2021/06/18 05:50:16;;;;;;;15.82;10.65;;;20.80;54.40;;;;;;4921848;29;20048;-84
2021/06/18 05:52:42;;;;;;;13.82;9.60;;;20.80;54.50;;;;;;4918231;29;20039;-83
2021/06/18 05:55:08;;;;;;;12.52;8.68;;;21.00;54.60;;;;;;4916702;29;20374;-83
2021/06/18 05:57:35;;;;;;;12.82;8.60;;;21.10;54.50;;;;;;4916613;29;20022;-84
2021/06/18 06:00:03;;;;;;;14.18;10.32;;;21.30;54.70;;;;;;4916744;29;20024;-84
2021/06/18 06:02:28;;;;;;;12.35;9.48;;;21.30;54.70;;;;;;4916784;29;20040;-84
2021/06/18 06:04:54;;;;;;;14.20;9.63;;;21.40;54.70;;;;;;4899785;29;20031;-84
2021/06/18 06:07:19;;;;;;;14.70;9.68;;;21.50;54.70;;;;;;4899709;29;20050;-84
2021/06/18 06:09:45;;;;;;;14.98;10.30;;;21.60;55.40;;;;;;4916620;29;20025;-84
2021/06/18 06:12:11;;;;;;;13.63;9.27;;;21.80;55.00;;;;;;4899442;29;20106;-84
2021/06/18 06:14:36;;;;;;;13.85;8.25;;;21.80;55.00;;;;;;4899616;29;20024;-84
2021/06/18 06:17:03;;;;;;;13.82;8.82;;;21.90;54.90;;;;;;4900086;29;20028;-84
2021/06/18 06:19:29;;;;;;;16.90;8.88;;;22.00;55.00;;;;;;4901189;29;20031;-84
2021/06/18 06:21:55;;;;;;;12.77;7.35;;;22.20;55.10;;;;;;4916601;29;20481;-83
2021/06/18 06:24:20;;;;;;;12.85;7.65;;;22.20;54.90;;;;;;4916498;29;20032;-84
2021/06/18 06:26:46;;;;;;;15.18;8.13;;;22.20;55.10;;;;;;4916787;29;20421;-83
2021/06/18 06:29:12;;;;;;;16.13;8.63;;;22.40;55.20;;;;;;4916356;29;20393;-84
2021/06/18 06:31:39;;;;;;;13.35;8.35;;;22.50;55.10;;;;;;4917719;29;20035;-84
2021/06/18 06:34:05;;;;;;;12.43;8.75;;;22.50;55.00;;;;;;4899541;29;20056;-84
2021/06/18 06:36:30;;;;;;;13.32;8.82;;;22.60;55.10;;;;;;4916149;29;20062;-84
2021/06/18 06:38:56;;;;;;;14.50;9.23;;;22.70;55.30;;;;;;4919397;29;20497;-84
2021/06/18 06:41:22;;;;;;;12.23;8.85;;;22.90;55.40;;;;;;4914687;29;20036;-84
2021/06/18 06:43:47;;;;;;;13.18;8.23;;;22.90;55.40;;;;;;4899620;29;20032;-84
2021/06/18 06:46:13;;;;;;;16.70;9.57;;;23.00;55.30;;;;;;4916430;29;20044;-84
2021/06/18 06:48:39;;;;;;;11.35;8.30;;;23.10;55.40;;;;;;4917898;29;20039;-84
2021/06/18 06:51:04;;;;;;;13.18;7.78;;;23.10;55.40;;;;;;4916238;29;20107;-84
2021/06/18 06:53:30;;;;;;;11.88;7.55;;;23.20;55.40;;;;;;4918952;29;20059;-85
2021/06/18 06:55:56;;;;;;;12.30;7.30;;;23.30;55.60;;;;;;4918492;29;20028;-84
2021/06/18 06:58:21;;;;;;;10.75;7.35;;;23.30;55.60;;;;;;4919299;29;20035;-84
2021/06/18 07:00:47;;;;;;;11.13;7.28;;;23.40;55.80;;;;;;4919896;29;20066;-87
2021/06/18 07:03:12;;;;;;;10.20;6.95;;;23.60;55.90;;;;;;4919762;29;20028;-86
2021/06/18 07:05:38;;;;;;;11.18;6.53;;;23.70;55.80;;;;;;4920157;29;20042;-87
2021/06/18 07:08:15;;;;;;;9.95;5.18;;;23.80;55.80;;;;;;4920624;29;20084;-87
2021/06/18 07:10:40;;;;;;;8.85;5.30;;;23.90;55.60;;;;;;4919543;29;20396;-87
2021/06/18 07:13:06;;;;;;;10.75;5.72;;;24.00;55.70;;;;;;4920074;29;20038;-87
2021/06/18 07:15:31;;;;;;;9.68;5.75;;;24.10;56.20;;;;;;4921484;29;20084;-87
2021/06/18 07:17:57;;;;;;;11.00;5.93;;;24.20;55.50;;;;;;4927820;29;20063;-86
2021/06/18 07:20:22;;;;;;;10.70;6.40;;;24.40;55.60;;;;;;4911021;29;20025;-87
2021/06/18 07:22:48;;;;;;;11.60;6.28;;;24.50;55.60;;;;;;4906967;29;20044;-86
2021/06/18 07:25:14;;;;;;;10.35;6.50;;;24.60;55.50;;;;;;4923697;29;20024;-86
2021/06/18 07:27:40;;;;;;;11.20;7.20;;;24.70;55.50;;;;;;4910174;29;20389;-85
2021/06/18 07:30:06;;;;;;;11.15;7.20;;;24.80;55.70;;;;;;4927209;29;20016;-86
2021/06/18 07:32:32;;;;;;;11.77;6.88;;;24.90;55.70;;;;;;4925351;29;20031;-87
2021/06/18 07:34:58;;;;;;;10.77;6.78;;;24.90;55.50;;;;;;4926327;29;20075;-88
2021/06/18 07:37:23;;;;;;;10.73;7.15;;;25.00;55.80;;;;;;4925943;29;20031;-86
2021/06/18 07:39:49;;;;;;;11.23;7.43;;;25.10;55.80;;;;;;4926591;29;20028;-86
2021/06/18 07:42:15;;;;;;;10.48;7.50;;;25.20;55.90;;;;;;4924277;29;20051;-86
2021/06/18 07:44:40;;;;;;;12.07;7.15;;;25.40;55.90;;;;;;4924563;29;20436;-86
2021/06/18 07:47:06;;;;;;;11.25;8.00;;;25.40;56.20;;;;;;4926682;29;20113;-86
2021/06/18 07:49:32;;;;;;;11.23;7.13;;;25.60;56.30;;;;;;4926747;29;20044;-86
2021/06/18 07:51:58;;;;;;;11.60;6.88;;;25.80;56.30;;;;;;4927256;29;20027;-86
2021/06/18 07:54:26;;;;;;;9.90;6.68;;;25.80;56.10;;;;;;4927388;29;20080;-85
2021/06/18 07:56:53;;;;;;;11.10;7.10;;;26.00;56.10;;;;;;4926707;29;20079;-85
2021/06/18 07:59:20;;;;;;;10.98;6.80;;;26.10;56.00;;;;;;4928549;29;20024;-85
2021/06/18 08:01:46;;;;;;;8.77;5.32;;;26.20;55.90;;;;;;4927758;29;20051;-85
2021/06/18 08:04:12;;;;;;;7.57;4.30;;;26.30;55.80;;;;;;4909080;29;20020;-86
2021/06/18 08:06:38;;;;;;;9.13;3.90;;;26.40;56.00;;;;;;4927962;29;20392;-86
2021/06/18 08:09:04;;;;;;;8.23;4.40;;;26.50;55.80;;;;;;4926862;29;20096;-86
2021/06/18 08:11:31;;;;;;;8.07;3.78;;;26.70;55.90;;;;;;4927154;29;20032;-87
2021/06/18 08:13:57;;;;;;;9.90;4.22;;;26.80;55.70;;;;;;4908566;29;20034;-86
2021/06/18 08:16:23;;;;;;;9.05;4.22;;;27.00;55.50;;;;;;4905805;29;20024;-86
2021/06/18 08:18:48;;;;;;;11.50;4.30;;;27.20;55.60;;;;;;4906715;29;20071;-85
2021/06/18 08:21:15;;;;;;;7.53;4.10;;;27.30;55.30;;;;;;4905776;29;20039;-85
2021/06/18 08:23:41;;;;;;;9.38;4.10;;;27.50;55.20;;;;;;4923659;29;20025;-86
2021/06/18 08:26:07;;;;;;;8.82;3.65;;;27.60;55.20;;;;;;4923708;29;20024;-86
2021/06/18 08:28:33;;;;;;;7.38;3.80;;;27.70;55.00;;;;;;4922726;29;20354;-87
2021/06/18 08:30:59;;;;;;;7.53;3.72;;;27.90;54.90;;;;;;4922577;29;20062;-86
2021/06/18 08:33:25;;;;;;;8.82;3.65;;;28.00;54.70;;;;;;4923974;29;20021;-86
2021/06/18 08:35:51;;;;;;;7.95;3.95;;;28.10;54.60;;;;;;4923144;29;20056;-85
2021/06/18 08:38:17;;;;;;;7.15;3.58;;;28.20;54.30;;;;;;4908041;29;20035;-86
2021/06/18 08:40:43;;;;;;;10.95;3.97;;;28.20;54.90;;;;;;4925532;29;20031;-85
2021/06/18 08:43:10;;;;;;;7.15;3.47;;;28.40;54.30;;;;;;4925465;29;20138;-86
2021/06/18 08:45:36;;;;;;;8.30;3.75;;;28.40;54.10;;;;;;4924611;29;20023;-86
2021/06/18 08:48:02;;;;;;;7.78;3.70;;;28.50;53.90;;;;;;4923565;29;20036;-85
2021/06/18 08:50:28;;;;;;;8.00;4.32;;;28.60;54.10;;;;;;4926067;29;20024;-86
2021/06/18 08:52:59;;;;;;;7.50;3.80;;;28.80;53.90;;;;;;4909980;29;20064;-85
2021/06/18 08:55:28;;;;;;;6.57;3.55;;;28.90;53.80;;;;;;4924966;29;20023;-84
2021/06/18 08:57:58;;;;;;;7.63;3.58;;;29.00;53.60;;;;;;4925395;29;20016;-85
2021/06/18 09:00:25;;;;;;;8.15;3.72;;;29.10;53.40;;;;;;4926223;29;20021;-86
2021/06/18 09:02:51;;;;;;;9.85;3.97;;;29.10;53.40;;;;;;4908253;29;20043;-87
2021/06/18 09:05:17;;;;;;;9.18;3.85;;;29.20;53.30;;;;;;4907737;29;20016;-87
2021/06/18 09:07:58;;;;;;;8.13;4.10;;;29.30;53.20;;;;;;4921618;29;20111;-87
2021/06/18 09:10:28;;;;;;;7.28;3.70;;;29.40;52.90;;;;;;4920220;29;20012;-87
2021/06/18 09:13:30;;;;;;;8.45;3.85;;;29.50;52.90;;;;;;4918869;29;20384;-88
2021/06/18 09:15:58;;;;;;;7.82;3.53;;;29.50;52.90;;;;;;4917215;29;20052;-88
2021/06/18 09:18:31;;;;;;;7.85;3.65;;;29.60;52.80;;;;;;4917206;29;20028;-89
2021/06/18 09:21:03;;;;;;;7.67;3.77;;;29.70;52.60;;;;;;4917558;29;20083;-89
2021/06/18 09:23:37;;;;;;;7.82;3.35;;;29.80;52.40;;;;;;4900708;29;20433;-88
2021/06/18 09:26:21;;;;;;;6.47;3.35;;;29.90;52.40;;;;;;4912114;29;20032;-89
2021/06/18 09:29:05;;;;;;;7.32;3.42;;;30.00;52.40;;;;;;4916465;29;20362;-89
2021/06/18 09:31:48;;;;;;;9.10;3.70;;;30.00;52.10;;;;;;4916499;29;20060;-85
2021/06/18 09:34:27;;;;;;;8.35;3.60;;;30.10;52.20;;;;;;4917297;29;20032;-90
2021/06/18 09:37:19;;;;;;;8.32;3.60;;;30.30;52.10;;;;;;4913401;29;20032;-88
2021/06/18 09:39:58;;;;;;;8.45;3.92;;;30.40;52.10;;;;;;4915836;29;20582;-85
2021/06/18 09:42:24;;;;;;;7.43;3.58;;;30.60;51.90;;;;;;4914743;29;20044;-86
2021/06/18 09:45:06;;;;;;;6.88;3.58;;;30.80;51.80;;;;;;4916785;29;20076;-84
2021/06/18 09:47:31;;;;;;;5.97;3.20;;;30.80;51.50;;;;;;4919395;29;20384;-85
2021/06/18 09:49:57;;;;;;;7.25;3.20;;;30.90;51.30;;;;;;4917829;29;20048;-84
2021/06/18 09:52:25;;;;;;;5.47;3.08;;;31.00;51.10;;;;;;4913993;29;20024;-84
2021/06/18 09:54:55;;;;;;;6.65;3.33;;;31.10;51.00;;;;;;4904486;29;20073;-84
2021/06/18 09:57:20;;;;;;;7.72;4.07;;;31.20;50.90;;;;;;4922204;29;20155;-84
2021/06/18 10:00:02;;;;;;;6.97;3.42;;;31.30;51.00;;;;;;4922446;29;20492;-85
2021/06/18 10:02:43;;;;;;;7.40;3.33;;;31.60;51.00;;;;;;4912262;29;20032;-84
2021/06/18 10:05:18;;;;;;;7.57;3.83;;;31.80;50.80;;;;;;4916151;29;20020;-85
2021/06/18 10:07:48;;;;;;;8.43;3.78;;;31.90;50.40;;;;;;4916993;29;20080;-84
2021/06/18 10:10:19;;;;;;;6.90;3.72;;;32.00;50.20;;;;;;4913474;29;20429;-84
2021/06/18 10:12:46;;;;;;;28.92;5.75;;;32.10;49.70;;;;;;4916653;29;20096;-85
2021/06/18 10:15:15;;;;;;;6.93;3.45;;;32.20;49.70;;;;;;4915352;29;20032;-84
2021/06/18 10:17:43;;;;;;;7.57;3.80;;;32.40;49.70;;;;;;4916663;29;20024;-84
2021/06/18 10:20:17;;;;;;;8.65;4.00;;;32.50;49.70;;;;;;4916457;29;20032;-84
2021/06/18 10:22:53;;;;;;;7.15;3.90;;;32.50;49.00;;;;;;4916141;29;20603;-84
2021/06/18 10:25:24;;;;;;;7.05;3.80;;;32.60;48.90;;;;;;4916435;29;20021;-85
2021/06/18 10:27:50;;;;;;;7.90;3.58;;;32.80;48.90;;;;;;4915732;29;20032;-84
2021/06/18 10:30:24;;;;;;;6.43;3.30;;;32.90;48.80;;;;;;4916107;29;20021;-84
2021/06/18 10:32:51;;;;;;;8.48;3.70;;;33.10;48.60;;;;;;4912946;29;20362;-85
2021/06/18 10:35:46;;;;;;;7.30;3.55;;;33.20;48.10;;;;;;4916198;29;20039;-85
2021/06/18 10:38:24;;;;;;;7.50;3.78;;;33.30;48.20;;;;;;4915188;29;20036;-84
2021/06/18 10:40:51;;;;;;;7.70;3.50;;;33.40;48.20;;;;;;4914717;29;20024;-84
2021/06/18 10:43:17;;;;;;;7.97;3.45;;;33.60;48.20;;;;;;4916591;29;20040;-85
2021/06/18 10:45:58;;;;;;;8.00;3.45;;;33.80;48.00;;;;;;4916183;29;20056;-85
2021/06/18 10:49:00;;;;;;;6.70;3.50;;;34.10;47.80;;;;;;4914658;29;20050;-85
2021/06/18 10:51:28;;;;;;;7.85;3.42;;;34.20;48.40;;;;;;4895351;29;20024;-85
2021/06/18 10:54:02;;;;;;;6.40;3.35;;;34.40;47.50;;;;;;4911157;29;20062;-84
2021/06/18 10:56:46;;;;;;;;;;;34.60;47.50;;;;;;4914923;29;20380;-84
2021/06/18 10:59:12;;;;;;;7.50;3.17;;;34.80;47.90;;;;;;4916534;29;19911;-84
2021/06/18 11:01:39;;;;;;;6.18;3.00;;;35.00;47.20;;;;;;4915488;29;20048;-84
2021/06/18 11:04:07;;;;;;;5.97;3.03;;;35.20;46.80;;;;;;4915955;29;20481;-84
2021/06/18 11:06:44;;;;;;;6.60;3.00;;;35.30;46.80;;;;;;4915322;29;20028;-84
2021/06/18 11:09:10;;;;;;;6.68;3.08;;;35.50;46.60;;;;;;4912785;29;20120;-84
2021/06/18 11:11:36;;;;;;;6.72;3.20;;;35.80;46.90;;;;;;4910427;29;20024;-84
2021/06/18 11:14:08;;;;;;;6.75;3.25;;;36.10;46.70;;;;;;4916010;29;20429;-84
2021/06/18 11:16:41;;;;;;;5.28;2.90;;;36.50;46.60;;;;;;4916446;29;20519;-84
2021/06/18 11:19:27;;;;;;;7.07;3.00;;;37.00;47.00;;;;;;4916335;29;20473;-84
2021/06/18 11:21:54;;;;;;;9.20;3.13;;;37.50;47.40;;;;;;4911367;29;20043;-84
2021/06/18 11:24:39;;;;;;;5.70;2.90;;;37.90;46.60;;;;;;4898942;29;20027;-84
2021/06/18 11:27:26;;;;;;;6.18;2.63;;;38.50;48.00;;;;;;4909750;29;20109;-84
2021/06/18 11:30:30;;;;;;;6.53;2.90;;;39.60;48.60;;;;;;4914848;29;20067;-84
2021/06/18 11:32:57;;;;;;;4.13;2.65;;;40.50;48.30;;;;;;4915873;29;20381;-86
2021/06/18 11:35:32;;;;;;;5.72;3.00;;;41.30;47.00;;;;;;4916135;29;20382;-85
2021/06/18 11:38:17;;;;;;;5.38;2.78;;;42.00;46.40;;;;;;4894525;29;20491;-85
2021/06/18 11:40:44;;;;;;;4.95;2.72;;;42.70;46.50;;;;;;4919314;29;20039;-84
2021/06/18 11:43:10;;;;;;;5.60;2.88;;;43.30;45.50;;;;;;4919332;29;20055;-85
2021/06/18 11:45:41;;;;;;;7.38;3.10;;;44.00;45.40;;;;;;4918273;29;20361;-85
2021/06/18 11:48:15;;;;;;;6.72;2.80;;;44.70;44.00;;;;;;4919011;29;20031;-85
2021/06/18 11:50:44;;;;;;;5.03;2.53;;;45.40;43.50;;;;;;4919344;29;20036;-85
2021/06/18 11:53:11;;;;;;;8.93;3.00;;;46.10;43.30;;;;;;4919233;29;20016;-85
2021/06/18 11:55:37;;;;;;;6.72;2.50;;;46.70;42.50;;;;;;4918906;29;20027;-86
2021/06/18 11:58:03;;;;;;;5.30;3.03;;;47.40;41.30;;;;;;4918902;29;20020;-87
2021/06/18 12:00:33;;;;;;;4.93;2.53;;;47.80;40.70;;;;;;4899820;29;20087;-84
2021/06/18 12:03:08;;;;;;;4.70;2.67;;;48.50;40.40;;;;;;4919077;29;20181;-85
2021/06/18 12:05:35;;;;;;;3.20;2.50;;;48.70;39.00;;;;;;4912863;29;20031;-86
2021/06/18 12:08:10;;;;;;;4.47;2.45;;;49.10;38.90;;;;;;4916998;29;20051;-85
2021/06/18 12:10:36;;;;;;;5.30;2.40;;;49.50;38.00;;;;;;4917119;29;20024;-84
2021/06/18 12:13:02;;;;;;;4.47;2.97;;;49.80;37.70;;;;;;4918902;29;20481;-85
2021/06/18 12:15:35;;;;;;;5.00;2.47;;;49.30;35.00;;;;;;4914748;29;20024;-85
2021/06/18 12:18:04;;;;;;;5.00;2.80;;;49.30;36.20;;;;;;4912229;29;20028;-85
2021/06/18 12:20:37;;;;;;;4.45;2.40;;;49.50;36.20;;;;;;4911606;29;20047;-85
2021/06/18 12:23:04;;;;;;;4.43;2.63;;;50.10;36.40;;;;;;4918364;29;20584;-85
2021/06/18 12:25:30;;;;;;;6.90;2.80;;;50.90;36.90;;;;;;4918699;29;20084;-85
2021/06/18 12:27:59;;;;;;;5.90;3.10;;;51.80;36.90;;;;;;4920386;29;20394;-85
2021/06/18 12:30:29;;;;;;;6.60;2.88;;;51.80;34.10;;;;;;4923795;29;20024;-85
2021/06/18 12:32:55;;;;;;;5.72;3.00;;;52.60;34.30;;;;;;4917518;29;20032;-86
2021/06/18 12:35:32;;;;;;;4.63;2.85;;;53.40;33.00;;;;;;4900952;29;20036;-86
2021/06/18 12:38:00;;;;;;;3.38;2.92;;;53.60;32.70;;;;;;4917291;29;20122;-85
2021/06/18 12:40:28;;;;;;;4.57;3.28;;;53.80;30.90;;;;;;4918353;29;20099;-85
2021/06/18 12:42:56;;;;;;;8.15;3.80;;;54.30;30.30;;;;;;4901152;29;20448;-87
2021/06/18 12:45:23;;;;;;;6.63;3.70;;;54.60;29.90;;;;;;4918070;29;20024;-85
2021/06/18 12:48:06;;;;;;;4.55;3.53;;;55.10;30.20;;;;;;4918065;29;20032;-86